首页
METAR-TAF:

METAR-TAF

机场 :

Ponta Delgada, 亚速尔群岛, 葡萄牙

纬度: 37-44N, 经度: 025-42W, 海拔: 71米

当前天气观测

该预报发布于13分钟前的18:00 UTC
风速8节,风向西
温度 18°C
湿度 83%
气压 1030 hPa
能见度10公里或以上
少量云层高于1800英尺
散云层高于2800英尺

METAR: LPPD 241800Z 28008KT 9999 FEW018 SCT028 18/15 Q1030

时间: 18:13 (18:13 UTC)

预报

该预报发布于1小时和13分钟前的17:00 UTC
预报有效从24日的 18点(UTC)到 25日的 18点(UTC)
风速10节,风向西
能见度10公里或以上
散云层高于1800英尺
成为
从 24日的 19点(UTC)到 24日的 22点(UTC)
风速5节,风向多变
成为
从 25日的 00点(UTC)到 25日的 03点(UTC)
风速5节,风向西北
散云层高于1600英尺
多云层高于3000英尺
短暂存在
从 25日的 03点(UTC)到 25日的 09点(UTC)
多云层高于1500英尺
成为
从 25日的 08点(UTC)到 25日的 10点(UTC)
风速5节,风向东转东北
成为
从 25日的 11点(UTC)到 25日的 14点(UTC)
风速10节,风向西

TAF: LPPD 241700Z 2418/2518 28010KT 9999 SCT018 BECMG 2419/2422 VRB05KT BECMG 2500/2503 32005KT SCT016 BKN030 TEMPO 2503/2509 BKN015 BECMG 2508/2510 06005KT BECMG 2511/2514 26010KT

超过4000个机场的气象观测和天气预报(METAR&TAF报告)。

可查询的气象台以黄色和红色小点在地图上表示。

将鼠标移到小点上方,可查看气象台名称。

然后点击查看天气观测和预报。

如需切换地图:点击带黑十字的绿色按钮放大地图;点击带横线的绿色按钮缩小地图;或者点击绿色箭头查看邻近地区的地图。


METAR-TAF: